sensor_id;sensor_type;location;lat;lon;timestamp;pressure;altitude;pressure_sealevel;temperature;humidity
47080;BME280;33067;49.296;14.470;2023-03-21T00:01:00;97111.32;;;12.83;40.04
47080;BME280;33067;49.296;14.470;2023-03-21T00:03:25;97109.11;;;12.83;39.86
47080;BME280;33067;49.296;14.470;2023-03-21T00:05:50;97111.55;;;12.96;39.78
47080;BME280;33067;49.296;14.470;2023-03-21T00:08:17;97116.59;;;12.52;40.71
47080;BME280;33067;49.296;14.470;2023-03-21T00:10:41;97114.37;;;12.55;40.62
47080;BME280;33067;49.296;14.470;2023-03-21T00:13:07;97111.81;;;12.38;40.62
47080;BME280;33067;49.296;14.470;2023-03-21T00:15:32;97109.34;;;12.76;40.47
47080;BME280;33067;49.296;14.470;2023-03-21T00:17:58;97109.25;;;13.27;40.11
47080;BME280;33067;49.296;14.470;2023-03-21T00:20:23;97108.47;;;12.65;40.17
47080;BME280;33067;49.296;14.470;2023-03-21T00:22:48;97108.54;;;12.91;40.18
47080;BME280;33067;49.296;14.470;2023-03-21T00:25:14;97106.66;;;12.72;40.03
47080;BME280;33067;49.296;14.470;2023-03-21T00:27:40;97106.59;;;12.69;40.10
47080;BME280;33067;49.296;14.470;2023-03-21T00:30:06;97108.30;;;12.70;40.11
47080;BME280;33067;49.296;14.470;2023-03-21T00:32:30;97107.98;;;13.02;40.03
47080;BME280;33067;49.296;14.470;2023-03-21T00:34:56;97106.95;;;12.90;39.84
47080;BME280;33067;49.296;14.470;2023-03-21T00:37:21;97105.48;;;12.93;39.80
47080;BME280;33067;49.296;14.470;2023-03-21T00:39:47;97101.73;;;13.42;39.66
47080;BME280;33067;49.296;14.470;2023-03-21T00:42:11;97097.16;;;12.73;39.79
47080;BME280;33067;49.296;14.470;2023-03-21T00:44:37;97096.51;;;13.18;39.96
47080;BME280;33067;49.296;14.470;2023-03-21T00:47:02;97096.60;;;13.16;39.98
47080;BME280;33067;49.296;14.470;2023-03-21T00:49:28;97093.86;;;13.06;40.02
47080;BME280;33067;49.296;14.470;2023-03-21T00:51:52;97091.64;;;12.72;40.27
47080;BME280;33067;49.296;14.470;2023-03-21T00:54:18;97090.82;;;12.83;40.16
47080;BME280;33067;49.296;14.470;2023-03-21T00:56:44;97090.21;;;12.79;40.23
47080;BME280;33067;49.296;14.470;2023-03-21T00:59:14;97092.89;;;13.05;40.13
47080;BME280;33067;49.296;14.470;2023-03-21T01:01:34;97094.18;;;12.67;39.96
47080;BME280;33067;49.296;14.470;2023-03-21T01:04:00;97093.50;;;12.53;40.17
47080;BME280;33067;49.296;14.470;2023-03-21T01:06:25;97094.32;;;12.79;40.14
47080;BME280;33067;49.296;14.470;2023-03-21T01:08:51;97090.90;;;12.73;40.16
47080;BME280;33067;49.296;14.470;2023-03-21T01:11:19;97091.86;;;12.57;40.04
47080;BME280;33067;49.296;14.470;2023-03-21T01:13:42;97088.27;;;12.75;40.00
47080;BME280;33067;49.296;14.470;2023-03-21T01:16:08;97085.75;;;12.72;40.30
47080;BME280;33067;49.296;14.470;2023-03-21T01:18:34;97082.43;;;12.63;40.01
47080;BME280;33067;49.296;14.470;2023-03-21T01:20:59;97078.38;;;12.49;40.00
47080;BME280;33067;49.296;14.470;2023-03-21T01:23:25;97075.46;;;12.18;40.31
47080;BME280;33067;49.296;14.470;2023-03-21T01:25:51;97073.38;;;11.93;40.63
47080;BME280;33067;49.296;14.470;2023-03-21T01:28:15;97071.02;;;11.96;40.20
47080;BME280;33067;49.296;14.470;2023-03-21T01:30:44;97069.98;;;12.07;40.72
47080;BME280;33067;49.296;14.470;2023-03-21T01:33:06;97071.25;;;12.17;40.79
47080;BME280;33067;49.296;14.470;2023-03-21T01:35:31;97072.97;;;12.12;40.93
47080;BME280;33067;49.296;14.470;2023-03-21T01:37:56;97072.86;;;12.16;40.82
47080;BME280;33067;49.296;14.470;2023-03-21T01:40:23;97071.60;;;12.18;40.72
47080;BME280;33067;49.296;14.470;2023-03-21T01:42:47;97068.21;;;12.03;40.43
47080;BME280;33067;49.296;14.470;2023-03-21T01:47:37;97066.84;;;12.20;40.08
47080;BME280;33067;49.296;14.470;2023-03-21T01:50:03;97067.30;;;12.04;40.02
47080;BME280;33067;49.296;14.470;2023-03-21T01:52:30;97062.52;;;11.81;40.26
47080;BME280;33067;49.296;14.470;2023-03-21T01:54:54;97062.14;;;11.61;40.60
47080;BME280;33067;49.296;14.470;2023-03-21T01:57:21;97060.77;;;11.87;40.24
47080;BME280;33067;49.296;14.470;2023-03-21T01:59:46;97059.23;;;11.82;40.39
47080;BME280;33067;49.296;14.470;2023-03-21T02:02:12;97061.02;;;11.81;40.57
47080;BME280;33067;49.296;14.470;2023-03-21T02:04:37;97059.82;;;11.83;40.52
47080;BME280;33067;49.296;14.470;2023-03-21T02:07:03;97056.43;;;11.86;40.46
47080;BME280;33067;49.296;14.470;2023-03-21T02:09:26;97057.07;;;12.06;40.48
47080;BME280;33067;49.296;14.470;2023-03-21T02:11:50;97055.11;;;12.21;40.42
47080;BME280;33067;49.296;14.470;2023-03-21T02:14:17;97052.22;;;11.78;40.60
47080;BME280;33067;49.296;14.470;2023-03-21T02:16:49;97052.14;;;11.66;40.73
47080;BME280;33067;49.296;14.470;2023-03-21T02:19:20;97048.70;;;11.26;41.21
47080;BME280;33067;49.296;14.470;2023-03-21T02:21:46;97048.89;;;11.50;40.54
47080;BME280;33067;49.296;14.470;2023-03-21T02:24:10;97047.74;;;11.62;40.42
47080;BME280;33067;49.296;14.470;2023-03-21T02:26:37;97045.74;;;11.56;40.84
47080;BME280;33067;49.296;14.470;2023-03-21T02:28:53;97047.31;;;11.56;40.90
47080;BME280;33067;49.296;14.470;2023-03-21T02:31:22;97046.48;;;10.88;41.41
47080;BME280;33067;49.296;14.470;2023-03-21T02:33:56;97046.93;;;11.39;41.72
47080;BME280;33067;49.296;14.470;2023-03-21T02:36:17;97049.19;;;11.41;41.97
47080;BME280;33067;49.296;14.470;2023-03-21T02:38:33;97045.61;;;11.42;42.09
47080;BME280;33067;49.296;14.470;2023-03-21T02:41:02;97044.81;;;11.20;42.02
47080;BME280;33067;49.296;14.470;2023-03-21T02:43:25;97046.08;;;11.62;40.82
47080;BME280;33067;49.296;14.470;2023-03-21T02:45:49;97045.59;;;11.31;40.53
47080;BME280;33067;49.296;14.470;2023-03-21T02:48:14;97047.65;;;11.46;40.63
47080;BME280;33067;49.296;14.470;2023-03-21T02:50:40;97046.13;;;11.33;40.62
47080;BME280;33067;49.296;14.470;2023-03-21T02:53:03;97044.72;;;11.30;40.73
47080;BME280;33067;49.296;14.470;2023-03-21T02:55:29;97046.77;;;11.08;41.11
47080;BME280;33067;49.296;14.470;2023-03-21T02:57:54;97047.46;;;10.89;41.42
47080;BME280;33067;49.296;14.470;2023-03-21T03:00:21;97049.04;;;10.73;41.18
47080;BME280;33067;49.296;14.470;2023-03-21T03:02:43;97048.43;;;10.99;40.89
47080;BME280;33067;49.296;14.470;2023-03-21T03:05:13;97051.71;;;10.76;41.19
47080;BME280;33067;49.296;14.470;2023-03-21T03:07:39;97052.04;;;10.59;41.31
47080;BME280;33067;49.296;14.470;2023-03-21T03:13:10;97046.58;;;10.97;40.75
47080;BME280;33067;49.296;14.470;2023-03-21T03:15:34;97046.62;;;11.06;40.98
47080;BME280;33067;49.296;14.470;2023-03-21T03:17:55;97051.50;;;10.63;41.31
47080;BME280;33067;49.296;14.470;2023-03-21T03:20:24;97049.87;;;10.65;41.13
47080;BME280;33067;49.296;14.470;2023-03-21T03:22:48;97053.09;;;10.61;41.10
47080;BME280;33067;49.296;14.470;2023-03-21T03:25:08;97051.22;;;11.03;40.92
47080;BME280;33067;49.296;14.470;2023-03-21T03:27:38;97053.20;;;10.86;40.93
47080;BME280;33067;49.296;14.470;2023-03-21T03:29:59;97054.24;;;10.97;40.77
47080;BME280;33067;49.296;14.470;2023-03-21T03:32:27;97054.09;;;11.02;40.52
47080;BME280;33067;49.296;14.470;2023-03-21T03:34:50;97056.86;;;10.91;40.76
47080;BME280;33067;49.296;14.470;2023-03-21T03:37:16;97060.16;;;10.82;41.07
47080;BME280;33067;49.296;14.470;2023-03-21T03:39:44;97055.36;;;10.85;40.28
47080;BME280;33067;49.296;14.470;2023-03-21T03:42:07;97060.61;;;10.59;40.35
47080;BME280;33067;49.296;14.470;2023-03-21T03:44:30;97061.28;;;10.89;40.05
47080;BME280;33067;49.296;14.470;2023-03-21T03:46:58;97059.08;;;10.50;40.49
47080;BME280;33067;49.296;14.470;2023-03-21T03:49:23;97060.59;;;10.18;41.20
47080;BME280;33067;49.296;14.470;2023-03-21T03:51:50;97059.84;;;10.20;41.22
47080;BME280;33067;49.296;14.470;2023-03-21T03:54:13;97057.52;;;10.21;41.27
47080;BME280;33067;49.296;14.470;2023-03-21T03:56:39;97053.35;;;10.10;41.57
47080;BME280;33067;49.296;14.470;2023-03-21T03:59:04;97048.53;;;10.10;41.73
47080;BME280;33067;49.296;14.470;2023-03-21T04:01:28;97044.01;;;10.04;41.95
47080;BME280;33067;49.296;14.470;2023-03-21T04:03:53;97043.34;;;10.13;41.95
47080;BME280;33067;49.296;14.470;2023-03-21T04:06:18;97042.98;;;10.22;41.89
47080;BME280;33067;49.296;14.470;2023-03-21T04:08:44;97044.34;;;10.65;41.53
47080;BME280;33067;49.296;14.470;2023-03-21T04:11:10;97045.92;;;10.14;41.42
47080;BME280;33067;49.296;14.470;2023-03-21T04:13:34;97046.21;;;9.79;42.03
47080;BME280;33067;49.296;14.470;2023-03-21T04:16:00;97045.94;;;9.93;42.23
47080;BME280;33067;49.296;14.470;2023-03-21T04:18:25;97044.27;;;10.04;42.03
47080;BME280;33067;49.296;14.470;2023-03-21T04:20:50;97043.81;;;10.36;41.54
47080;BME280;33067;49.296;14.470;2023-03-21T04:23:16;97043.81;;;10.20;41.93
47080;BME280;33067;49.296;14.470;2023-03-21T04:25:41;97043.60;;;10.52;41.60
47080;BME280;33067;49.296;14.470;2023-03-21T04:28:07;97043.99;;;10.59;41.47
47080;BME280;33067;49.296;14.470;2023-03-21T04:30:32;97044.30;;;10.50;41.21
47080;BME280;33067;49.296;14.470;2023-03-21T04:32:57;97046.44;;;10.47;41.11
47080;BME280;33067;49.296;14.470;2023-03-21T04:35:23;97046.97;;;10.46;41.25
47080;BME280;33067;49.296;14.470;2023-03-21T04:37:49;97044.51;;;10.31;41.51
47080;BME280;33067;49.296;14.470;2023-03-21T04:40:14;97042.35;;;10.50;41.17
47080;BME280;33067;49.296;14.470;2023-03-21T04:42:39;97039.04;;;10.62;40.89
47080;BME280;33067;49.296;14.470;2023-03-21T04:45:06;97041.30;;;10.52;41.28
47080;BME280;33067;49.296;14.470;2023-03-21T04:47:30;97039.04;;;10.22;41.30
47080;BME280;33067;49.296;14.470;2023-03-21T04:49:56;97039.74;;;10.22;41.37
47080;BME280;33067;49.296;14.470;2023-03-21T04:52:21;97040.05;;;10.30;40.99
47080;BME280;33067;49.296;14.470;2023-03-21T04:54:46;97039.27;;;10.24;41.11
47080;BME280;33067;49.296;14.470;2023-03-21T04:57:12;97040.70;;;10.13;41.30
47080;BME280;33067;49.296;14.470;2023-03-21T04:59:38;97044.99;;;10.21;41.34
47080;BME280;33067;49.296;14.470;2023-03-21T05:02:02;97043.59;;;10.19;41.46
47080;BME280;33067;49.296;14.470;2023-03-21T05:04:28;97046.15;;;10.03;41.34
47080;BME280;33067;49.296;14.470;2023-03-21T05:06:54;97047.03;;;10.56;41.29
47080;BME280;33067;49.296;14.470;2023-03-21T05:09:19;97046.66;;;10.28;41.25
47080;BME280;33067;49.296;14.470;2023-03-21T05:11:45;97045.26;;;10.54;41.17
47080;BME280;33067;49.296;14.470;2023-03-21T05:14:13;97045.43;;;9.87;41.37
47080;BME280;33067;49.296;14.470;2023-03-21T05:16:37;97047.32;;;9.87;41.22
47080;BME280;33067;49.296;14.470;2023-03-21T05:19:01;97047.84;;;9.97;41.66
47080;BME280;33067;49.296;14.470;2023-03-21T05:21:26;97049.00;;;10.29;41.77
47080;BME280;33067;49.296;14.470;2023-03-21T05:23:52;97048.73;;;10.12;41.77
47080;BME280;33067;49.296;14.470;2023-03-21T05:26:17;97052.26;;;10.24;41.97
47080;BME280;33067;49.296;14.470;2023-03-21T05:28:42;97049.78;;;10.13;41.98
47080;BME280;33067;49.296;14.470;2023-03-21T05:31:07;97051.80;;;10.09;41.91
47080;BME280;33067;49.296;14.470;2023-03-21T05:33:32;97053.94;;;10.42;41.90
47080;BME280;33067;49.296;14.470;2023-03-21T05:35:58;97051.27;;;10.24;42.04
47080;BME280;33067;49.296;14.470;2023-03-21T05:38:23;97050.89;;;10.72;41.85
47080;BME280;33067;49.296;14.470;2023-03-21T05:40:49;97052.26;;;10.58;41.90
47080;BME280;33067;49.296;14.470;2023-03-21T05:43:14;97052.61;;;10.96;41.75
47080;BME280;33067;49.296;14.470;2023-03-21T05:45:39;97051.97;;;10.73;41.99
47080;BME280;33067;49.296;14.470;2023-03-21T05:48:05;97049.00;;;10.98;41.46
47080;BME280;33067;49.296;14.470;2023-03-21T05:50:30;97049.73;;;11.07;41.38
47080;BME280;33067;49.296;14.470;2023-03-21T05:52:55;97053.46;;;11.20;41.41
47080;BME280;33067;49.296;14.470;2023-03-21T05:55:20;97049.71;;;11.40;41.23
47080;BME280;33067;49.296;14.470;2023-03-21T05:57:46;97046.84;;;11.71;40.66
47080;BME280;33067;49.296;14.470;2023-03-21T06:00:12;97049.48;;;11.31;40.29
47080;BME280;33067;49.296;14.470;2023-03-21T06:02:36;97052.08;;;11.44;40.13
47080;BME280;33067;49.296;14.470;2023-03-21T06:05:02;97049.73;;;11.53;39.93
47080;BME280;33067;49.296;14.470;2023-03-21T06:07:27;97051.18;;;11.97;39.07
47080;BME280;33067;49.296;14.470;2023-03-21T06:09:53;97052.67;;;11.73;39.54
47080;BME280;33067;49.296;14.470;2023-03-21T06:12:18;97053.37;;;11.88;39.35
47080;BME280;33067;49.296;14.470;2023-03-21T06:14:43;97055.84;;;12.02;39.30
47080;BME280;33067;49.296;14.470;2023-03-21T06:17:09;97052.58;;;12.09;39.28
47080;BME280;33067;49.296;14.470;2023-03-21T06:19:34;97053.77;;;12.85;38.60
47080;BME280;33067;49.296;14.470;2023-03-21T06:22:00;97053.42;;;12.82;38.21
47080;BME280;33067;49.296;14.470;2023-03-21T06:24:26;97055.13;;;12.81;38.18
47080;BME280;33067;49.296;14.470;2023-03-21T06:26:50;97054.27;;;13.23;37.89
47080;BME280;33067;49.296;14.470;2023-03-21T06:29:15;97055.76;;;13.21;37.67
47080;BME280;33067;49.296;14.470;2023-03-21T06:31:41;97053.12;;;13.48;37.71
47080;BME280;33067;49.296;14.470;2023-03-21T06:34:07;97053.93;;;13.70;37.41
47080;BME280;33067;49.296;14.470;2023-03-21T06:36:32;97058.48;;;13.98;37.22
47080;BME280;33067;49.296;14.470;2023-03-21T06:38:58;97057.77;;;14.30;36.65
47080;BME280;33067;49.296;14.470;2023-03-21T06:41:24;97055.60;;;14.46;36.66
47080;BME280;33067;49.296;14.470;2023-03-21T06:43:49;97053.23;;;14.85;36.12
47080;BME280;33067;49.296;14.470;2023-03-21T06:46:15;97050.91;;;14.57;35.29
47080;BME280;33067;49.296;14.470;2023-03-21T06:48:41;97054.32;;;14.73;35.21
47080;BME280;33067;49.296;14.470;2023-03-21T06:51:06;97051.68;;;14.62;34.51
47080;BME280;33067;49.296;14.470;2023-03-21T06:53:31;97051.19;;;14.90;34.62
47080;BME280;33067;49.296;14.470;2023-03-21T06:55:57;97051.01;;;14.73;34.21
47080;BME280;33067;49.296;14.470;2023-03-21T06:58:22;97052.96;;;13.78;34.04
47080;BME280;33067;49.296;14.470;2023-03-21T07:00:48;97052.70;;;15.18;33.66
47080;BME280;33067;49.296;14.470;2023-03-21T07:03:13;97056.74;;;15.21;33.86
47080;BME280;33067;49.296;14.470;2023-03-21T07:05:39;97056.58;;;14.53;34.19
47080;BME280;33067;49.296;14.470;2023-03-21T07:08:04;97060.93;;;14.36;34.32
47080;BME280;33067;49.296;14.470;2023-03-21T07:10:29;97065.24;;;14.08;34.74
47080;BME280;33067;49.296;14.470;2023-03-21T07:12:54;97064.64;;;13.81;35.25
47080;BME280;33067;49.296;14.470;2023-03-21T07:15:20;97065.63;;;14.03;35.11
47080;BME280;33067;49.296;14.470;2023-03-21T07:17:45;97061.95;;;13.47;35.85
47080;BME280;33067;49.296;14.470;2023-03-21T07:20:11;97061.87;;;13.34;36.02
47080;BME280;33067;49.296;14.470;2023-03-21T07:22:35;97064.86;;;13.11;36.19
47080;BME280;33067;49.296;14.470;2023-03-21T07:25:01;97061.66;;;13.20;36.28
47080;BME280;33067;49.296;14.470;2023-03-21T07:27:27;97064.43;;;13.23;36.31
47080;BME280;33067;49.296;14.470;2023-03-21T07:29:52;97065.40;;;12.90;36.45
47080;BME280;33067;49.296;14.470;2023-03-21T07:32:17;97064.82;;;13.32;36.40
47080;BME280;33067;49.296;14.470;2023-03-21T07:34:42;97065.62;;;12.71;36.60
47080;BME280;33067;49.296;14.470;2023-03-21T07:37:08;97062.91;;;13.10;36.54
47080;BME280;33067;49.296;14.470;2023-03-21T07:39:34;97067.48;;;13.26;36.05
47080;BME280;33067;49.296;14.470;2023-03-21T07:42:00;97064.21;;;13.54;35.34
47080;BME280;33067;49.296;14.470;2023-03-21T07:44:25;97062.80;;;13.73;35.10
47080;BME280;33067;49.296;14.470;2023-03-21T07:46:51;97063.25;;;13.68;35.03
47080;BME280;33067;49.296;14.470;2023-03-21T07:49:17;97062.78;;;13.61;35.27
47080;BME280;33067;49.296;14.470;2023-03-21T07:51:43;97065.50;;;12.85;35.41
47080;BME280;33067;49.296;14.470;2023-03-21T07:54:08;97068.46;;;12.88;35.30
47080;BME280;33067;49.296;14.470;2023-03-21T07:56:33;97066.75;;;13.22;35.10
47080;BME280;33067;49.296;14.470;2023-03-21T07:58:58;97067.07;;;13.63;34.52
47080;BME280;33067;49.296;14.470;2023-03-21T08:01:24;97068.61;;;14.26;34.68
47080;BME280;33067;49.296;14.470;2023-03-21T08:03:49;97071.39;;;14.59;34.08
47080;BME280;33067;49.296;14.470;2023-03-21T08:06:15;97069.97;;;14.58;33.25
47080;BME280;33067;49.296;14.470;2023-03-21T08:08:41;97069.95;;;14.24;33.69
47080;BME280;33067;49.296;14.470;2023-03-21T08:11:06;97071.51;;;14.32;33.62
47080;BME280;33067;49.296;14.470;2023-03-21T08:13:31;97067.78;;;14.28;33.37
47080;BME280;33067;49.296;14.470;2023-03-21T08:15:57;97062.76;;;14.64;33.03
47080;BME280;33067;49.296;14.470;2023-03-21T08:18:23;97062.47;;;13.79;34.10
47080;BME280;33067;49.296;14.470;2023-03-21T08:20:51;97063.38;;;14.79;33.13
47080;BME280;33067;49.296;14.470;2023-03-21T08:23:14;97064.22;;;15.51;31.45
47080;BME280;33067;49.296;14.470;2023-03-21T08:25:39;97061.66;;;15.03;31.81
47080;BME280;33067;49.296;14.470;2023-03-21T08:28:05;97062.42;;;13.89;32.56
47080;BME280;33067;49.296;14.470;2023-03-21T08:30:30;97062.74;;;14.87;31.82
47080;BME280;33067;49.296;14.470;2023-03-21T08:32:56;97062.62;;;13.77;32.59
47080;BME280;33067;49.296;14.470;2023-03-21T08:35:21;97061.24;;;13.59;32.56
47080;BME280;33067;49.296;14.470;2023-03-21T08:37:46;97058.79;;;13.53;32.92
47080;BME280;33067;49.296;14.470;2023-03-21T08:40:15;97061.50;;;13.23;33.38
47080;BME280;33067;49.296;14.470;2023-03-21T08:42:38;97056.18;;;13.50;33.27
47080;BME280;33067;49.296;14.470;2023-03-21T08:45:04;97055.79;;;13.06;33.91
47080;BME280;33067;49.296;14.470;2023-03-21T08:47:28;97057.77;;;13.90;33.30
47080;BME280;33067;49.296;14.470;2023-03-21T08:49:54;97060.22;;;14.54;32.79
47080;BME280;33067;49.296;14.470;2023-03-21T08:52:19;97057.67;;;15.31;31.59
47080;BME280;33067;49.296;14.470;2023-03-21T08:54:45;97056.87;;;15.04;31.97
47080;BME280;33067;49.296;14.470;2023-03-21T08:57:11;97054.24;;;14.94;31.80
47080;BME280;33067;49.296;14.470;2023-03-21T08:59:36;97053.42;;;14.61;32.13
47080;BME280;33067;49.296;14.470;2023-03-21T09:02:01;97052.05;;;14.98;32.19
47080;BME280;33067;49.296;14.470;2023-03-21T09:04:27;97046.79;;;15.24;31.89
47080;BME280;33067;49.296;14.470;2023-03-21T09:06:52;97043.68;;;15.09;32.02
47080;BME280;33067;49.296;14.470;2023-03-21T09:09:18;97042.35;;;15.64;30.84
47080;BME280;33067;49.296;14.470;2023-03-21T09:11:44;97041.14;;;15.41;31.64
47080;BME280;33067;49.296;14.470;2023-03-21T09:14:09;97042.53;;;14.95;31.98
47080;BME280;33067;49.296;14.470;2023-03-21T09:16:35;97038.70;;;14.28;32.27
47080;BME280;33067;49.296;14.470;2023-03-21T09:19:00;97038.95;;;14.75;31.93
47080;BME280;33067;49.296;14.470;2023-03-21T09:21:26;97041.16;;;14.73;31.69
47080;BME280;33067;49.296;14.470;2023-03-21T09:23:51;97036.34;;;14.98;30.19
47080;BME280;33067;49.296;14.470;2023-03-21T09:26:16;97039.18;;;14.53;29.93
47080;BME280;33067;49.296;14.470;2023-03-21T09:28:42;97028.86;;;15.48;28.56
47080;BME280;33067;49.296;14.470;2023-03-21T09:31:08;97028.83;;;15.36;29.65
47080;BME280;33067;49.296;14.470;2023-03-21T09:33:33;97028.86;;;15.00;30.74
47080;BME280;33067;49.296;14.470;2023-03-21T09:35:58;97027.73;;;15.23;30.24
47080;BME280;33067;49.296;14.470;2023-03-21T09:38:23;97026.80;;;15.63;30.55
47080;BME280;33067;49.296;14.470;2023-03-21T09:41:01;97025.63;;;16.35;30.05
47080;BME280;33067;49.296;14.470;2023-03-21T09:43:24;97027.58;;;16.13;29.90
47080;BME280;33067;49.296;14.470;2023-03-21T09:45:44;97022.43;;;16.55;29.21
47080;BME280;33067;49.296;14.470;2023-03-21T09:48:11;97022.51;;;15.04;30.08
47080;BME280;33067;49.296;14.470;2023-03-21T09:50:33;97025.70;;;15.54;30.20
47080;BME280;33067;49.296;14.470;2023-03-21T09:52:59;97021.19;;;15.55;29.98
47080;BME280;33067;49.296;14.470;2023-03-21T09:55:23;97023.91;;;14.86;30.85
47080;BME280;33067;49.296;14.470;2023-03-21T09:57:48;97018.30;;;15.35;30.06
47080;BME280;33067;49.296;14.470;2023-03-21T10:00:16;97018.23;;;15.38;30.43
47080;BME280;33067;49.296;14.470;2023-03-21T10:02:38;97015.94;;;15.19;30.65
47080;BME280;33067;49.296;14.470;2023-03-21T10:05:10;97015.63;;;15.76;29.96
47080;BME280;33067;49.296;14.470;2023-03-21T10:07:30;97012.15;;;15.86;29.71
47080;BME280;33067;49.296;14.470;2023-03-21T10:09:53;97001.05;;;16.76;28.98
47080;BME280;33067;49.296;14.470;2023-03-21T10:12:21;97003.13;;;14.46;31.27
47080;BME280;33067;49.296;14.470;2023-03-21T10:14:46;96996.62;;;15.25;30.80
47080;BME280;33067;49.296;14.470;2023-03-21T10:17:17;96998.15;;;13.96;31.82
47080;BME280;33067;49.296;14.470;2023-03-21T10:19:34;96992.92;;;14.87;30.92
47080;BME280;33067;49.296;14.470;2023-03-21T10:22:00;96994.46;;;16.01;29.78
47080;BME280;33067;49.296;14.470;2023-03-21T10:24:27;96991.96;;;15.53;29.86
47080;BME280;33067;49.296;14.470;2023-03-21T10:26:52;96988.44;;;15.82;29.82
47080;BME280;33067;49.296;14.470;2023-03-21T10:29:17;96977.74;;;16.19;29.21
47080;BME280;33067;49.296;14.470;2023-03-21T10:31:42;96975.21;;;16.46;29.00
47080;BME280;33067;49.296;14.470;2023-03-21T10:34:14;96974.37;;;16.20;29.09
47080;BME280;33067;49.296;14.470;2023-03-21T10:36:34;96982.54;;;15.53;29.83
47080;BME280;33067;49.296;14.470;2023-03-21T10:39:01;96983.94;;;16.13;29.99
47080;BME280;33067;49.296;14.470;2023-03-21T10:41:23;96982.87;;;15.73;29.52
47080;BME280;33067;49.296;14.470;2023-03-21T10:44:03;96979.76;;;16.55;28.95
47080;BME280;33067;49.296;14.470;2023-03-21T10:46:17;96976.65;;;16.65;28.74
47080;BME280;33067;49.296;14.470;2023-03-21T10:48:41;96975.11;;;16.05;29.48
47080;BME280;33067;49.296;14.470;2023-03-21T10:51:07;96973.86;;;15.84;29.80
47080;BME280;33067;49.296;14.470;2023-03-21T10:53:34;96970.22;;;15.85;29.50
47080;BME280;33067;49.296;14.470;2023-03-21T10:55:59;96964.02;;;17.05;28.75
47080;BME280;33067;49.296;14.470;2023-03-21T10:58:25;96962.96;;;16.85;28.68
47080;BME280;33067;49.296;14.470;2023-03-21T11:00:46;96961.61;;;17.16;28.87
47080;BME280;33067;49.296;14.470;2023-03-21T11:03:18;96961.12;;;17.22;28.41
47080;BME280;33067;49.296;14.470;2023-03-21T11:05:39;96961.01;;;17.51;28.37
47080;BME280;33067;49.296;14.470;2023-03-21T11:08:06;96958.58;;;16.67;29.35
47080;BME280;33067;49.296;14.470;2023-03-21T11:10:31;96959.43;;;17.16;28.95
47080;BME280;33067;49.296;14.470;2023-03-21T11:12:56;96952.54;;;16.67;29.19
47080;BME280;33067;49.296;14.470;2023-03-21T11:15:28;96952.88;;;17.25;28.62
47080;BME280;33067;49.296;14.470;2023-03-21T11:17:46;96951.31;;;17.74;28.01
47080;BME280;33067;49.296;14.470;2023-03-21T11:20:17;96947.62;;;17.72;28.15
47080;BME280;33067;49.296;14.470;2023-03-21T11:22:39;96944.61;;;17.83;27.92
47080;BME280;33067;49.296;14.470;2023-03-21T11:25:08;96942.54;;;17.75;28.39
47080;BME280;33067;49.296;14.470;2023-03-21T11:27:28;96939.65;;;16.91;29.17
47080;BME280;33067;49.296;14.470;2023-03-21T11:29:53;96934.05;;;16.65;29.24
47080;BME280;33067;49.296;14.470;2023-03-21T11:32:24;96932.37;;;17.23;29.01
47080;BME280;33067;49.296;14.470;2023-03-21T11:34:46;96929.93;;;16.89;28.92
47080;BME280;33067;49.296;14.470;2023-03-21T11:37:16;96924.85;;;16.66;29.73
47080;BME280;33067;49.296;14.470;2023-03-21T11:39:35;96923.46;;;17.29;29.11
47080;BME280;33067;49.296;14.470;2023-03-21T11:41:59;96923.16;;;17.49;29.00
47080;BME280;33067;49.296;14.470;2023-03-21T11:44:27;96922.33;;;17.91;28.59
47080;BME280;33067;49.296;14.470;2023-03-21T11:46:49;96920.27;;;18.23;28.00
47080;BME280;33067;49.296;14.470;2023-03-21T11:49:14;96915.00;;;17.84;28.13
47080;BME280;33067;49.296;14.470;2023-03-21T11:51:45;96916.11;;;17.71;28.56
47080;BME280;33067;49.296;14.470;2023-03-21T11:54:10;96910.08;;;16.99;29.02
47080;BME280;33067;49.296;14.470;2023-03-21T11:56:32;96907.34;;;18.01;28.34
47080;BME280;33067;49.296;14.470;2023-03-21T11:59:05;96898.96;;;17.58;28.19
47080;BME280;33067;49.296;14.470;2023-03-21T12:01:26;96896.40;;;17.97;27.90
47080;BME280;33067;49.296;14.470;2023-03-21T12:03:54;96897.48;;;18.08;27.50
47080;BME280;33067;49.296;14.470;2023-03-21T12:06:17;96890.63;;;17.91;27.90
47080;BME280;33067;49.296;14.470;2023-03-21T12:08:43;96888.53;;;18.20;27.86
47080;BME280;33067;49.296;14.470;2023-03-21T12:11:07;96882.71;;;18.04;27.97
47080;BME280;33067;49.296;14.470;2023-03-21T12:13:35;96878.82;;;18.30;27.54
47080;BME280;33067;49.296;14.470;2023-03-21T12:15:59;96871.41;;;17.73;27.67
47080;BME280;33067;49.296;14.470;2023-03-21T12:18:32;96866.39;;;18.24;27.68
47080;BME280;33067;49.296;14.470;2023-03-21T12:20:48;96863.90;;;17.84;27.82
47080;BME280;33067;49.296;14.470;2023-03-21T12:23:18;96860.12;;;17.56;28.32
47080;BME280;33067;49.296;14.470;2023-03-21T12:25:38;96855.09;;;17.68;27.79
47080;BME280;33067;49.296;14.470;2023-03-21T12:28:04;96853.31;;;18.23;27.38
47080;BME280;33067;49.296;14.470;2023-03-21T12:30:34;96847.37;;;18.67;26.72
47080;BME280;33067;49.296;14.470;2023-03-21T12:32:56;96847.14;;;18.67;26.60
47080;BME280;33067;49.296;14.470;2023-03-21T12:35:21;96847.86;;;18.82;26.68
47080;BME280;33067;49.296;14.470;2023-03-21T12:37:46;96845.60;;;18.55;26.29
47080;BME280;33067;49.296;14.470;2023-03-21T12:40:11;96842.68;;;18.62;26.48
47080;BME280;33067;49.296;14.470;2023-03-21T12:42:40;96840.24;;;18.46;26.20
47080;BME280;33067;49.296;14.470;2023-03-21T12:44:59;96837.48;;;18.82;25.62